Time;durP1;ratioP1;P1;durP2;ratioP2;P2;SDS_P1;SDS_P2;PMS_P1;PMS_P2;Temp;Humidity;BMP_temperature;BMP_pressure;BME280_temperature;BME280_humidity;BME280_pressure;Samples;Min_cycle;Max_cycle;Signal;HPM_P1;HPM_P2
2021/11/30 00:01:39;;;;;;;0.73;0.30;;;19.40;46.60;;;;;;4946723;29;20043;-40
2021/11/30 00:04:05;;;;;;;1.13;0.60;;;19.40;46.70;;;;;;4946503;29;20032;-41
2021/11/30 00:06:34;;;;;;;0.57;0.30;;;19.40;46.70;;;;;;4946806;29;20034;-39
2021/11/30 00:09:21;;;;;;;0.43;0.30;;;19.30;46.70;;;;;;4945097;29;20624;-41
2021/11/30 00:11:51;;;;;;;1.27;0.30;;;19.30;46.80;;;;;;4946643;29;20050;-40
2021/11/30 00:14:17;;;;;;;0.68;0.30;;;19.30;46.80;;;;;;4946343;29;20035;-40
2021/11/30 00:16:43;;;;;;;0.77;0.38;;;19.30;46.80;;;;;;4946577;29;20030;-41
2021/11/30 00:19:09;;;;;;;0.80;0.38;;;19.20;46.80;;;;;;4945997;29;20075;-40
2021/11/30 00:21:35;;;;;;;0.55;0.50;;;19.20;46.90;;;;;;4945924;29;20111;-40
2021/11/30 00:24:01;;;;;;;0.77;0.30;;;19.20;46.90;;;;;;4946144;29;20032;-39
2021/11/30 00:26:28;;;;;;;0.70;0.40;;;19.10;46.90;;;;;;4937667;29;20035;-40
2021/11/30 00:28:54;;;;;;;1.58;0.40;;;19.10;46.90;;;;;;4927021;29;20039;-40
2021/11/30 00:31:20;;;;;;;0.98;0.30;;;19.10;46.90;;;;;;4927154;29;20028;-40
2021/11/30 00:33:46;;;;;;;0.55;0.40;;;19.00;46.90;;;;;;4927049;29;20056;-40
2021/11/30 00:36:12;;;;;;;1.35;0.40;;;19.10;47.00;;;;;;4926821;29;20107;-40
2021/11/30 00:38:38;;;;;;;0.90;0.50;;;19.00;47.00;;;;;;4926978;29;20059;-40
2021/11/30 00:41:04;;;;;;;0.85;0.30;;;19.00;47.10;;;;;;4926983;29;20025;-40
2021/11/30 00:43:35;;;;;;;0.95;0.40;;;18.90;47.00;;;;;;4926824;29;20036;-40
2021/11/30 00:46:11;;;;;;;0.70;0.30;;;18.90;47.10;;;;;;4926848;29;20054;-41
2021/11/30 00:48:38;;;;;;;1.33;0.50;;;18.90;47.10;;;;;;4928214;29;20036;-41
2021/11/30 00:51:10;;;;;;;1.00;0.50;;;18.90;47.20;;;;;;4945450;29;20028;-40
2021/11/30 00:53:37;;;;;;;0.80;0.57;;;18.90;47.20;;;;;;4945829;29;20150;-41
2021/11/30 00:56:04;;;;;;;0.50;0.50;;;18.80;47.20;;;;;;4945243;29;20123;-41
2021/11/30 00:58:30;;;;;;;0.47;0.38;;;18.80;47.30;;;;;;4945719;29;20028;-41
2021/11/30 01:00:56;;;;;;;1.77;0.30;;;18.70;47.30;;;;;;4944391;29;20118;-41
2021/11/30 01:03:22;;;;;;;0.88;0.38;;;18.70;47.30;;;;;;4945739;29;20044;-41
2021/11/30 01:05:48;;;;;;;0.93;0.50;;;18.70;47.40;;;;;;4945280;29;20035;-41
2021/11/30 01:08:14;;;;;;;3.70;0.40;;;18.70;47.30;;;;;;4945228;29;20036;-41
2021/11/30 01:10:41;;;;;;;0.50;0.38;;;18.60;47.30;;;;;;4945373;29;20023;-41
2021/11/30 01:13:07;;;;;;;0.70;0.50;;;18.60;47.30;;;;;;4945377;29;20031;-40
2021/11/30 01:15:33;;;;;;;0.35;0.35;;;18.60;47.40;;;;;;4945298;29;20035;-41
2021/11/30 01:17:59;;;;;;;1.85;0.40;;;18.60;47.40;;;;;;4945458;29;20027;-40
2021/11/30 01:20:26;;;;;;;0.40;0.35;;;18.50;47.50;;;;;;4944988;29;20051;-40
2021/11/30 01:22:52;;;;;;;0.98;0.50;;;18.50;47.50;;;;;;4943824;29;20040;-40
2021/11/30 01:25:19;;;;;;;0.77;0.50;;;18.50;48.10;;;;;;4944975;29;20456;-41
2021/11/30 01:27:47;;;;;;;0.82;0.40;;;18.50;47.50;;;;;;4926928;29;20047;-40
2021/11/30 01:30:14;;;;;;;0.68;0.40;;;18.40;47.60;;;;;;4925965;29;20051;-40
2021/11/30 01:32:41;;;;;;;0.70;0.35;;;18.50;47.80;;;;;;4926427;29;20043;-40
2021/11/30 01:35:08;;;;;;;0.70;0.50;;;18.50;47.90;;;;;;4940465;29;20039;-40
2021/11/30 01:37:34;;;;;;;1.15;0.50;;;18.50;47.90;;;;;;4945135;29;20642;-40
2021/11/30 01:40:00;;;;;;;1.05;0.40;;;18.50;47.90;;;;;;4944922;29;20500;-40
2021/11/30 01:42:28;;;;;;;0.47;0.40;;;18.40;47.90;;;;;;4944986;29;20043;-40
2021/11/30 01:45:02;;;;;;;;;;;18.40;47.90;;;;;;4945208;29;20453;-40
2021/11/30 01:49:55;;;;;;;0.47;0.43;;;18.30;48.00;;;;;;4931813;29;20028;-40
2021/11/30 01:52:21;;;;;;;1.05;0.70;;;18.30;48.00;;;;;;4927858;29;20039;-40
2021/11/30 01:54:49;;;;;;;0.63;0.40;;;18.50;48.20;;;;;;4944999;29;20095;-40
2021/11/30 01:57:16;;;;;;;0.50;0.40;;;18.50;48.20;;;;;;4944252;29;20090;-40
2021/11/30 01:59:42;;;;;;;1.13;0.50;;;18.40;48.10;;;;;;4945137;29;20074;-40
2021/11/30 02:02:08;;;;;;;0.93;0.47;;;18.40;48.20;;;;;;4944641;29;20128;-40
2021/11/30 02:04:36;;;;;;;0.70;0.45;;;18.30;48.10;;;;;;4944668;29;20091;-40
2021/11/30 02:07:02;;;;;;;;;;;18.30;48.10;;;;;;4945362;29;20058;-41
2021/11/30 02:09:28;;;;;;;1.02;0.43;;;18.30;48.20;;;;;;4944736;29;19910;-40
2021/11/30 02:11:54;;;;;;;0.50;0.38;;;18.30;48.20;;;;;;4946552;29;20119;-40
2021/11/30 02:14:20;;;;;;;1.45;0.47;;;18.40;48.40;;;;;;4948284;29;20095;-40
2021/11/30 02:16:47;;;;;;;0.73;0.50;;;18.40;48.30;;;;;;4948204;29;20032;-41
2021/11/30 02:19:13;;;;;;;1.02;0.40;;;18.40;48.30;;;;;;4941492;29;20109;-40
2021/11/30 02:21:40;;;;;;;0.80;0.40;;;18.30;48.30;;;;;;4928819;29;20075;-40
2021/11/30 02:24:09;;;;;;;1.07;0.60;;;18.20;48.30;;;;;;4945064;29;20341;-40
2021/11/30 02:26:37;;;;;;;1.42;0.63;;;18.20;48.30;;;;;;4938597;29;20063;-40
2021/11/30 02:29:04;;;;;;;0.70;0.50;;;18.20;48.40;;;;;;4929283;29;20032;-40
2021/11/30 02:31:33;;;;;;;0.80;0.70;;;18.30;48.50;;;;;;4928862;29;20032;-41
2021/11/30 02:34:00;;;;;;;0.60;0.43;;;18.40;48.60;;;;;;4929068;29;20064;-40
2021/11/30 02:36:40;;;;;;;0.90;0.60;;;18.30;48.50;;;;;;4928978;29;20028;-40
2021/11/30 02:39:07;;;;;;;0.50;0.40;;;18.30;48.50;;;;;;4929149;29;20075;-40
2021/11/30 02:41:33;;;;;;;;;;;18.20;48.50;;;;;;4927849;29;20051;-42
2021/11/30 02:43:59;;;;;;;0.70;0.43;;;18.20;48.50;;;;;;4928796;29;19915;-42
2021/11/30 02:46:46;;;;;;;0.52;0.45;;;18.20;48.60;;;;;;4928762;29;20076;-41
2021/11/30 02:49:34;;;;;;;0.93;0.63;;;18.30;48.70;;;;;;4935454;29;20509;-41
2021/11/30 02:52:07;;;;;;;2.10;0.57;;;18.30;48.70;;;;;;4947594;29;20657;-41
2021/11/30 02:54:34;;;;;;;0.98;0.47;;;18.30;48.60;;;;;;4928651;29;20040;-41
2021/11/30 02:57:01;;;;;;;;;;;18.30;48.60;;;;;;4929518;29;20056;-40
2021/11/30 02:59:29;;;;;;;1.25;0.73;;;18.20;48.60;;;;;;4928687;29;19917;-41
2021/11/30 03:02:04;;;;;;;0.80;0.57;;;18.20;48.70;;;;;;4928145;29;20047;-41
2021/11/30 03:04:30;;;;;;;0.70;0.50;;;18.20;48.70;;;;;;4928389;29;20024;-43
2021/11/30 03:06:56;;;;;;;0.80;0.47;;;18.30;49.00;;;;;;4928506;29;20039;-42
2021/11/30 03:09:23;;;;;;;0.73;0.45;;;18.30;48.90;;;;;;4928619;29;20028;-41
2021/11/30 03:11:49;;;;;;;0.60;0.40;;;18.40;48.90;;;;;;4928157;29;20640;-41
2021/11/30 03:14:15;;;;;;;0.93;0.60;;;18.30;48.70;;;;;;4928285;29;20039;-40
2021/11/30 03:16:41;;;;;;;1.10;0.50;;;18.30;48.80;;;;;;4934353;29;20055;-41
2021/11/30 03:19:08;;;;;;;0.57;0.47;;;18.20;48.80;;;;;;4947286;29;20051;-40
2021/11/30 03:21:34;;;;;;;1.23;0.60;;;18.20;48.90;;;;;;4945617;29;20051;-41
2021/11/30 03:24:00;;;;;;;0.90;0.60;;;18.20;48.90;;;;;;4946242;29;20035;-42
2021/11/30 03:26:26;;;;;;;1.65;0.38;;;18.30;49.00;;;;;;4938635;29;20043;-40
2021/11/30 03:28:53;;;;;;;0.80;0.57;;;18.30;48.90;;;;;;4928319;29;20032;-41
2021/11/30 03:34:11;;;;;;;0.68;0.50;;;18.20;48.70;;;;;;4892017;29;20108;-41
2021/11/30 03:36:38;;;;;;;0.80;0.52;;;18.20;48.80;;;;;;4927820;29;20061;-41
2021/11/30 03:39:07;;;;;;;0.88;0.60;;;18.20;48.90;;;;;;4930169;29;20039;-41
2021/11/30 03:41:34;;;;;;;0.73;0.52;;;18.20;49.00;;;;;;4946903;29;20043;-41
2021/11/30 03:44:00;;;;;;;0.88;0.70;;;18.30;49.00;;;;;;4946552;29;20125;-40
2021/11/30 03:46:27;;;;;;;1.00;0.45;;;18.30;48.90;;;;;;4946665;29;20027;-41
2021/11/30 03:48:53;;;;;;;0.90;0.60;;;18.30;48.80;;;;;;4946256;29;20179;-41
2021/11/30 03:51:19;;;;;;;1.00;0.70;;;18.20;48.80;;;;;;4946581;29;20087;-41
2021/11/30 03:53:45;;;;;;;0.70;0.60;;;18.20;48.90;;;;;;4946164;29;20024;-41
2021/11/30 03:56:11;;;;;;;1.10;0.70;;;18.20;49.00;;;;;;4945441;29;20067;-40
2021/11/30 03:58:37;;;;;;;0.70;0.60;;;18.20;49.10;;;;;;4946475;29;20066;-41
2021/11/30 04:01:04;;;;;;;0.70;0.45;;;18.30;49.20;;;;;;4946465;29;20035;-41
2021/11/30 04:03:33;;;;;;;0.85;0.60;;;18.30;49.60;;;;;;4946086;29;20066;-41
2021/11/30 04:05:59;;;;;;;0.75;0.60;;;18.30;48.90;;;;;;4946251;29;20484;-40
2021/11/30 04:08:25;;;;;;;0.87;0.60;;;18.20;48.90;;;;;;4946567;29;20086;-41
2021/11/30 04:10:52;;;;;;;0.88;0.55;;;18.20;49.00;;;;;;4946276;29;20024;-40
2021/11/30 04:13:18;;;;;;;0.65;0.50;;;18.20;49.10;;;;;;4945913;29;20047;-42
2021/11/30 04:15:44;;;;;;;0.43;0.38;;;18.20;49.20;;;;;;4945968;29;20032;-41
2021/11/30 04:18:10;;;;;;;0.73;0.55;;;18.30;49.20;;;;;;4945796;29;20039;-41
2021/11/30 04:20:36;;;;;;;1.33;0.70;;;18.40;49.20;;;;;;4928187;29;20059;-40
2021/11/30 04:23:02;;;;;;;1.00;0.60;;;18.30;49.00;;;;;;4933960;29;20040;-41
2021/11/30 04:25:28;;;;;;;0.90;0.57;;;18.30;49.00;;;;;;4945084;29;20038;-41
2021/11/30 04:27:54;;;;;;;0.93;0.57;;;18.20;49.00;;;;;;4926763;29;20059;-42
2021/11/30 04:30:21;;;;;;;1.25;0.80;;;18.10;49.10;;;;;;4926948;29;20059;-41
2021/11/30 04:32:49;;;;;;;1.08;0.57;;;18.20;49.20;;;;;;4926697;29;20756;-41
2021/11/30 04:35:16;;;;;;;0.80;0.60;;;18.30;49.30;;;;;;4926500;29;20028;-41
2021/11/30 04:37:42;;;;;;;0.90;0.68;;;18.30;49.20;;;;;;4927061;29;20062;-41
2021/11/30 04:40:09;;;;;;;0.65;0.43;;;18.30;49.10;;;;;;4926786;29;20024;-40
2021/11/30 04:42:35;;;;;;;;;;;18.30;49.10;;;;;;4927135;29;20043;-41
2021/11/30 04:45:08;;;;;;;0.85;0.60;;;18.20;49.10;;;;;;4926429;29;20358;-41
2021/11/30 04:47:37;;;;;;;0.60;0.52;;;18.10;49.10;;;;;;4926422;29;20564;-42
2021/11/30 04:50:10;;;;;;;0.82;0.60;;;18.20;49.20;;;;;;4926744;29;20040;-41
2021/11/30 04:52:38;;;;;;;0.70;0.50;;;18.20;49.30;;;;;;4930524;29;20042;-41
2021/11/30 04:55:05;;;;;;;0.88;0.52;;;18.30;49.30;;;;;;4945177;29;20095;-40
2021/11/30 04:57:31;;;;;;;0.50;0.50;;;18.30;49.20;;;;;;4928509;29;20032;-40
2021/11/30 04:59:57;;;;;;;1.10;0.60;;;18.30;49.10;;;;;;4926365;29;20035;-41
2021/11/30 05:02:23;;;;;;;0.70;0.55;;;18.20;49.10;;;;;;4926399;29;20040;-41
2021/11/30 05:04:49;;;;;;;1.00;0.50;;;18.10;49.20;;;;;;4926183;29;20035;-41
2021/11/30 05:07:16;;;;;;;1.38;0.50;;;18.10;49.30;;;;;;4926195;29;20028;-41
2021/11/30 05:09:42;;;;;;;1.13;0.63;;;18.20;49.30;;;;;;4926544;29;20499;-41
2021/11/30 05:12:09;;;;;;;1.50;0.80;;;18.30;49.40;;;;;;4926211;29;20036;-40
2021/11/30 05:14:35;;;;;;;1.20;0.70;;;18.40;49.30;;;;;;4926049;29;20159;-43
2021/11/30 05:17:01;;;;;;;2.05;0.80;;;18.30;49.20;;;;;;4926170;29;20032;-41
2021/11/30 05:19:27;;;;;;;1.40;0.68;;;18.20;49.20;;;;;;4925799;29;20028;-41
2021/11/30 05:21:54;;;;;;;1.60;0.70;;;18.20;49.30;;;;;;4926481;29;20119;-40
2021/11/30 05:24:20;;;;;;;2.88;1.13;;;18.10;49.20;;;;;;4944542;29;20027;-41
2021/11/30 05:26:47;;;;;;;2.70;1.07;;;18.20;49.40;;;;;;4933778;29;20043;-41
2021/11/30 05:29:14;;;;;;;2.90;1.20;;;18.20;49.40;;;;;;4926370;29;20032;-41
2021/11/30 05:31:40;;;;;;;4.03;1.35;;;18.30;49.40;;;;;;4926046;29;20054;-41
2021/11/30 05:34:06;;;;;;;3.65;1.13;;;18.40;49.40;;;;;;4925818;29;20043;-41
2021/11/30 05:36:33;;;;;;;4.38;1.20;;;18.30;49.20;;;;;;4925999;29;20882;-41
2021/11/30 05:39:00;;;;;;;3.17;1.55;;;18.20;49.20;;;;;;4929231;29;20031;-40
2021/11/30 05:41:26;;;;;;;2.58;1.20;;;18.20;49.30;;;;;;4945084;29;20122;-40
2021/11/30 05:43:52;;;;;;;3.22;1.25;;;18.10;49.40;;;;;;4945028;29;20142;-40
2021/11/30 05:46:19;;;;;;;2.50;0.95;;;18.20;49.40;;;;;;4945545;29;20023;-40
2021/11/30 05:48:45;;;;;;;3.33;1.45;;;18.30;49.40;;;;;;4948654;29;20039;-40
2021/11/30 05:51:11;;;;;;;2.90;1.38;;;18.30;49.40;;;;;;4948759;29;20064;-41
2021/11/30 05:53:37;;;;;;;2.97;1.17;;;18.30;49.30;;;;;;4936723;29;20048;-40
2021/11/30 05:56:05;;;;;;;3.28;1.42;;;18.30;49.30;;;;;;4930097;29;20064;-41
2021/11/30 05:58:35;;;;;;;3.53;1.35;;;18.20;49.30;;;;;;4943888;29;20031;-40
2021/11/30 06:01:09;;;;;;;2.28;1.27;;;18.10;49.40;;;;;;4948417;29;20032;-40
2021/11/30 06:03:56;;;;;;;2.33;1.13;;;18.20;49.40;;;;;;4948411;29;20060;-40
2021/11/30 06:06:23;;;;;;;3.53;1.30;;;18.30;49.50;;;;;;4948180;29;20035;-41
2021/11/30 06:08:49;;;;;;;2.10;1.13;;;18.30;49.40;;;;;;4948400;29;20044;-43
2021/11/30 06:11:16;;;;;;;3.47;0.88;;;18.40;49.30;;;;;;4948549;29;20035;-40
2021/11/30 06:13:42;;;;;;;2.88;1.20;;;18.30;49.30;;;;;;4948356;29;20126;-40
2021/11/30 06:16:08;;;;;;;3.25;1.38;;;18.20;49.40;;;;;;4947921;29;20035;-40
2021/11/30 06:18:34;;;;;;;2.33;1.20;;;18.10;49.40;;;;;;4948306;29;20556;-40
2021/11/30 06:21:01;;;;;;;2.50;1.40;;;18.20;49.50;;;;;;4947890;29;20051;-40
2021/11/30 06:23:28;;;;;;;3.25;1.60;;;18.30;49.40;;;;;;4946236;29;20047;-40
2021/11/30 06:25:54;;;;;;;4.50;1.77;;;18.30;49.40;;;;;;4943607;29;20036;-41
2021/11/30 06:28:20;;;;;;;3.63;1.63;;;18.30;49.20;;;;;;4929047;29;20039;-40
2021/11/30 06:30:46;;;;;;;4.80;1.80;;;18.30;49.20;;;;;;4928990;29;20035;-40
2021/11/30 06:33:12;;;;;;;4.72;2.10;;;18.20;49.20;;;;;;4929082;29;20048;-40
2021/11/30 06:35:38;;;;;;;3.63;1.95;;;18.10;48.80;;;;;;4928761;29;20028;-42
2021/11/30 06:38:05;;;;;;;3.85;2.00;;;18.20;49.40;;;;;;4928869;29;20408;-41
2021/11/30 06:40:31;;;;;;;7.60;2.22;;;18.30;49.40;;;;;;4928964;29;20032;-39
2021/11/30 06:42:57;;;;;;;4.78;2.13;;;18.30;49.40;;;;;;4928946;29;20072;-40
2021/11/30 06:45:23;;;;;;;3.90;2.10;;;18.40;49.30;;;;;;4928587;29;20039;-44
2021/11/30 06:47:49;;;;;;;4.03;1.85;;;18.30;49.30;;;;;;4928419;29;20032;-39
2021/11/30 06:50:15;;;;;;;5.40;2.05;;;18.20;49.30;;;;;;4927092;29;20032;-39
2021/11/30 06:52:43;;;;;;;4.53;2.00;;;18.10;49.40;;;;;;4933476;29;20047;-40
2021/11/30 06:55:09;;;;;;;;;;;18.10;49.50;;;;;;4948164;29;20032;-39
2021/11/30 06:57:35;;;;;;;4.10;2.00;;;18.20;49.50;;;;;;4928794;29;19939;-41
2021/11/30 07:00:06;;;;;;;4.88;1.98;;;18.30;49.60;;;;;;4928632;29;20032;-43
2021/11/30 07:02:33;;;;;;;4.35;1.98;;;18.30;49.40;;;;;;4947634;29;20052;-41
2021/11/30 07:05:06;;;;;;;4.13;1.83;;;18.30;49.30;;;;;;4947421;29;20051;-40
2021/11/30 07:08:00;;;;;;;3.10;1.80;;;18.20;49.30;;;;;;4947404;29;20027;-41
2021/11/30 07:13:02;;;;;;;3.63;1.65;;;18.20;49.50;;;;;;4947625;29;20027;-40
2021/11/30 07:15:28;;;;;;;4.05;1.75;;;18.20;49.50;;;;;;4947150;29;20087;-40
2021/11/30 07:17:56;;;;;;;3.30;1.98;;;18.30;49.50;;;;;;4946915;29;20123;-40
2021/11/30 07:20:23;;;;;;;3.72;1.67;;;18.30;49.30;;;;;;4946980;29;20059;-41
2021/11/30 07:22:52;;;;;;;3.65;1.70;;;18.30;49.30;;;;;;4946968;29;20505;-40
2021/11/30 07:25:18;;;;;;;2.35;1.70;;;18.20;49.30;;;;;;4946609;29;20032;-40
2021/11/30 07:27:44;;;;;;;3.30;1.58;;;18.10;49.40;;;;;;4928268;29;20040;-40
2021/11/30 07:30:10;;;;;;;3.13;1.40;;;18.20;49.50;;;;;;4928105;29;20083;-40
2021/11/30 07:32:36;;;;;;;2.75;1.42;;;18.30;49.60;;;;;;4927973;29;20024;-40
2021/11/30 07:35:05;;;;;;;2.42;1.38;;;18.30;49.50;;;;;;4927796;29;20445;-41
2021/11/30 07:37:32;;;;;;;3.67;1.58;;;18.30;49.30;;;;;;4927577;29;20039;-40
2021/11/30 07:39:58;;;;;;;2.95;1.45;;;18.30;49.30;;;;;;4927956;29;20115;-40
2021/11/30 07:42:26;;;;;;;2.33;1.40;;;18.20;49.30;;;;;;4934186;29;20047;-40
2021/11/30 07:44:52;;;;;;;2.30;1.42;;;18.10;49.40;;;;;;4946609;29;20023;-41
2021/11/30 07:47:18;;;;;;;3.00;1.50;;;18.10;49.50;;;;;;4946518;29;20429;-41
2021/11/30 07:49:44;;;;;;;2.72;1.30;;;18.20;49.60;;;;;;4946733;29;20028;-41
2021/11/30 07:52:12;;;;;;;2.60;1.40;;;18.30;49.60;;;;;;4945997;29;20091;-43
2021/11/30 07:54:38;;;;;;;2.38;1.30;;;18.30;49.50;;;;;;4929102;29;20042;-41
2021/11/30 07:57:05;;;;;;;1.85;1.20;;;18.30;49.40;;;;;;4932488;29;20044;-42
2021/11/30 07:59:32;;;;;;;2.40;1.23;;;18.30;49.30;;;;;;4927459;29;20024;-44
2021/11/30 08:01:58;;;;;;;2.80;1.25;;;18.20;49.40;;;;;;4927463;29;20201;-41
2021/11/30 08:04:25;;;;;;;2.92;1.40;;;18.10;49.40;;;;;;4927615;29;20402;-42
2021/11/30 08:06:51;;;;;;;1.73;1.15;;;18.20;49.60;;;;;;4939075;29;20035;-41
2021/11/30 08:09:17;;;;;;;2.85;1.00;;;18.20;49.50;;;;;;4945878;29;20143;-41
2021/11/30 08:11:43;;;;;;;1.70;1.13;;;18.30;49.60;;;;;;4946306;29;20032;-42
2021/11/30 08:14:11;;;;;;;2.75;1.13;;;18.30;49.40;;;;;;4946051;29;20047;-41
2021/11/30 08:16:38;;;;;;;2.25;1.50;;;18.30;49.40;;;;;;4946253;29;20056;-41
2021/11/30 08:19:04;;;;;;;1.85;1.20;;;18.20;49.30;;;;;;4945782;29;20042;-41
2021/11/30 08:21:30;;;;;;;2.95;1.00;;;18.20;49.50;;;;;;4945593;29;20063;-40
2021/11/30 08:23:56;;;;;;;1.63;1.10;;;18.10;49.60;;;;;;4946192;29;20095;-41
2021/11/30 08:26:22;;;;;;;2.22;1.20;;;18.20;49.60;;;;;;4944825;29;20035;-41
2021/11/30 08:28:48;;;;;;;2.42;1.10;;;18.30;49.60;;;;;;4945508;29;20036;-41
2021/11/30 08:31:14;;;;;;;1.85;1.00;;;18.30;49.60;;;;;;4945769;29;20032;-40
2021/11/30 08:33:41;;;;;;;1.63;1.02;;;18.30;49.40;;;;;;4945738;29;20042;-40
2021/11/30 08:36:07;;;;;;;2.05;1.15;;;18.20;49.40;;;;;;4945619;29;20024;-40
2021/11/30 08:38:33;;;;;;;1.80;0.98;;;18.10;49.40;;;;;;4945349;29;20031;-41
2021/11/30 08:40:59;;;;;;;1.83;1.20;;;18.10;49.60;;;;;;4945728;29;20024;-46
2021/11/30 08:43:26;;;;;;;1.65;1.02;;;18.20;49.60;;;;;;4945574;29;20048;-40
2021/11/30 08:45:54;;;;;;;1.53;1.00;;;18.30;49.60;;;;;;4945694;29;20083;-41
2021/11/30 08:48:20;;;;;;;1.25;0.90;;;18.30;49.60;;;;;;4945211;29;20301;-41
2021/11/30 08:50:47;;;;;;;1.40;0.80;;;18.30;49.40;;;;;;4926390;29;20032;-41
2021/11/30 08:53:13;;;;;;;1.58;0.90;;;18.30;49.50;;;;;;4934925;29;20045;-43
2021/11/30 08:55:39;;;;;;;1.42;1.00;;;18.20;49.50;;;;;;4943352;29;20028;-41
2021/11/30 08:58:05;;;;;;;2.15;1.10;;;18.10;49.60;;;;;;4926100;29;20064;-40
2021/11/30 09:00:31;;;;;;;1.50;0.98;;;18.20;49.60;;;;;;4926167;29;20028;-40
2021/11/30 09:02:57;;;;;;;2.22;1.05;;;18.30;49.60;;;;;;4926118;29;20044;-41
2021/11/30 09:05:24;;;;;;;1.35;0.90;;;18.30;49.60;;;;;;4926132;29;20027;-40
2021/11/30 09:07:50;;;;;;;1.70;1.00;;;18.30;49.50;;;;;;4926115;29;20032;-41
2021/11/30 09:10:16;;;;;;;1.63;0.95;;;18.30;49.50;;;;;;4926131;29;20059;-40
2021/11/30 09:12:42;;;;;;;1.10;0.75;;;18.20;49.60;;;;;;4926815;29;20217;-41
2021/11/30 09:15:09;;;;;;;1.67;0.90;;;18.20;49.70;;;;;;4945069;29;20034;-41
2021/11/30 09:17:38;;;;;;;1.73;0.98;;;18.30;49.70;;;;;;4945112;29;20110;-40
2021/11/30 09:20:06;;;;;;;1.80;0.77;;;18.40;49.80;;;;;;4944315;29;20052;-42
2021/11/30 09:22:32;;;;;;;1.40;0.88;;;18.40;49.60;;;;;;4944542;29;20055;-40
2021/11/30 09:24:59;;;;;;;0.90;0.75;;;18.30;49.50;;;;;;4944984;29;20539;-41
2021/11/30 09:27:26;;;;;;;1.25;0.80;;;18.20;49.50;;;;;;4945537;29;20047;-40
2021/11/30 09:29:53;;;;;;;1.20;1.00;;;18.10;49.60;;;;;;4944724;29;20027;-40
2021/11/30 09:32:19;;;;;;;1.50;0.85;;;18.20;49.70;;;;;;4944788;29;20035;-41
2021/11/30 09:34:45;;;;;;;1.23;0.80;;;18.30;49.70;;;;;;4944874;29;20128;-40
2021/11/30 09:37:11;;;;;;;0.98;0.73;;;18.40;49.70;;;;;;4944674;29;20628;-41
2021/11/30 09:39:37;;;;;;;1.00;0.70;;;18.40;49.60;;;;;;4944749;29;20106;-44
2021/11/30 09:42:04;;;;;;;1.73;0.77;;;18.30;49.50;;;;;;4944754;29;20032;-41
2021/11/30 09:44:31;;;;;;;0.98;0.85;;;18.20;49.50;;;;;;4944785;29;20047;-40
2021/11/30 09:46:58;;;;;;;0.90;0.80;;;18.10;49.60;;;;;;4943285;29;20031;-41
2021/11/30 09:49:24;;;;;;;;;;;18.20;49.70;;;;;;4927000;29;20690;-40
2021/11/30 09:51:50;;;;;;;1.50;0.88;;;18.30;49.80;;;;;;4943000;29;19921;-41
2021/11/30 09:54:17;;;;;;;1.30;0.80;;;18.30;49.70;;;;;;4944555;29;20039;-41
2021/11/30 09:56:43;;;;;;;1.23;0.63;;;18.30;49.60;;;;;;4943861;29;20028;-40
2021/11/30 09:59:09;;;;;;;1.40;0.90;;;18.30;49.60;;;;;;4944581;29;20032;-40
2021/11/30 10:01:36;;;;;;;1.73;0.93;;;18.20;49.60;;;;;;4944149;29;20036;-42
2021/11/30 10:04:03;;;;;;;1.88;1.10;;;18.20;49.70;;;;;;4944551;29;20032;-40
2021/11/30 10:06:29;;;;;;;;;;;18.20;49.70;;;;;;4944755;29;20035;-41
2021/11/30 10:08:56;;;;;;;1.23;0.80;;;18.30;49.70;;;;;;4944467;29;19911;-40
2021/11/30 10:11:37;;;;;;;1.20;0.90;;;18.40;49.70;;;;;;4943932;29;20027;-40
2021/11/30 10:14:18;;;;;;;1.15;0.90;;;18.30;49.60;;;;;;4944635;29;20127;-41
2021/11/30 10:17:10;;;;;;;1.10;0.63;;;18.20;49.60;;;;;;4944281;29;20035;-40
2021/11/30 10:19:37;;;;;;;1.20;0.88;;;18.10;49.70;;;;;;4944172;29;20024;-40
2021/11/30 10:22:03;;;;;;;1.27;0.80;;;18.20;49.70;;;;;;4943790;29;20055;-42
2021/11/30 10:24:29;;;;;;;1.55;1.10;;;18.30;49.80;;;;;;4944145;29;20352;-40
2021/11/30 10:26:56;;;;;;;1.67;1.00;;;18.30;49.80;;;;;;4944015;29;20083;-40
2021/11/30 10:29:22;;;;;;;1.15;0.80;;;18.30;49.60;;;;;;4944341;29;20036;-40
2021/11/30 10:31:50;;;;;;;1.55;1.10;;;18.30;49.60;;;;;;4944099;29;20116;-41
2021/11/30 10:34:22;;;;;;;0.82;0.70;;;18.20;49.60;;;;;;4947771;29;20034;-40
2021/11/30 10:36:59;;;;;;;1.95;1.17;;;18.20;49.70;;;;;;4947441;29;20745;-40
2021/11/30 10:39:36;;;;;;;0.90;0.77;;;18.30;49.70;;;;;;4947628;29;20028;-40
2021/11/30 10:42:31;;;;;;;1.00;0.70;;;18.40;49.70;;;;;;4930157;29;20059;-40
2021/11/30 10:44:57;;;;;;;1.38;0.73;;;18.40;49.60;;;;;;4931256;29;20098;-40
2021/11/30 10:47:25;;;;;;;1.48;1.00;;;18.30;49.60;;;;;;4947454;29;20087;-40
2021/11/30 10:50:06;;;;;;;1.70;0.88;;;18.20;49.60;;;;;;4947378;29;20501;-40
2021/11/30 10:52:33;;;;;;;0.90;0.68;;;18.10;49.70;;;;;;4946993;29;20091;-40
2021/11/30 10:55:14;;;;;;;1.33;0.80;;;18.20;49.70;;;;;;4947496;29;20055;-41
2021/11/30 10:57:40;;;;;;;0.90;0.70;;;18.30;49.70;;;;;;4944862;29;20289;-40
2021/11/30 11:00:20;;;;;;;1.35;0.85;;;18.40;49.70;;;;;;4947304;29;20083;-40
2021/11/30 11:02:52;;;;;;;0.85;0.55;;;18.30;49.50;;;;;;4946717;29;20047;-40
2021/11/30 11:05:28;;;;;;;1.20;0.77;;;18.30;49.50;;;;;;4947495;29;20035;-41
2021/11/30 11:08:17;;;;;;;1.20;0.73;;;18.10;49.60;;;;;;4947177;29;20038;-47
2021/11/30 11:11:01;;;;;;;1.65;1.00;;;18.10;49.70;;;;;;4947212;29;20024;-40
2021/11/30 11:13:29;;;;;;;1.45;0.88;;;18.20;49.70;;;;;;4947079;29;20034;-40
2021/11/30 11:15:57;;;;;;;1.58;0.70;;;18.30;49.70;;;;;;4946604;29;20095;-40
2021/11/30 11:18:25;;;;;;;2.97;0.90;;;18.30;49.60;;;;;;4946799;29;20027;-40
2021/11/30 11:21:12;;;;;;;1.20;0.65;;;18.30;49.50;;;;;;4946756;29;20064;-40
2021/11/30 11:23:42;;;;;;;1.13;0.70;;;18.30;49.40;;;;;;4946455;29;20051;-40
2021/11/30 11:26:19;;;;;;;1.00;0.80;;;18.20;49.50;;;;;;4947416;29;20040;-41
2021/11/30 11:28:45;;;;;;;1.30;0.90;;;18.20;49.60;;;;;;4946800;29;20047;-40
2021/11/30 11:31:11;;;;;;;0.93;0.60;;;18.30;49.70;;;;;;4946658;29;20059;-41
2021/11/30 11:33:37;;;;;;;0.82;0.63;;;18.30;49.60;;;;;;4946388;29;20032;-40
2021/11/30 11:36:05;;;;;;;1.20;0.60;;;18.40;49.60;;;;;;4946527;29;20058;-40
2021/11/30 11:38:31;;;;;;;1.23;0.70;;;18.30;49.40;;;;;;4944982;29;20032;-40
2021/11/30 11:40:58;;;;;;;1.00;0.57;;;18.30;49.50;;;;;;4945379;29;20210;-43
2021/11/30 11:43:24;;;;;;;1.23;0.90;;;18.20;49.60;;;;;;4945914;29;20031;-40
2021/11/30 11:45:52;;;;;;;1.58;0.95;;;18.20;49.70;;;;;;4946233;29;20032;-41
2021/11/30 11:48:18;;;;;;;2.15;1.00;;;18.30;49.60;;;;;;4929344;29;20031;-40
2021/11/30 11:50:52;;;;;;;1.10;0.70;;;18.30;49.60;;;;;;4945517;29;20038;-40
2021/11/30 11:53:24;;;;;;;0.90;0.80;;;18.40;49.50;;;;;;4945973;29;20031;-42
2021/11/30 11:56:12;;;;;;;1.77;1.00;;;18.30;49.40;;;;;;4945499;29;20047;-40
2021/11/30 11:58:40;;;;;;;1.00;0.80;;;18.20;49.50;;;;;;4936843;29;20036;-40
2021/11/30 12:01:06;;;;;;;1.08;0.80;;;18.10;49.60;;;;;;4946141;29;20031;-41
2021/11/30 12:04:12;;;;;;;1.00;0.70;;;18.20;49.70;;;;;;4945679;29;20067;-40
2021/11/30 12:06:58;;;;;;;1.00;0.88;;;18.30;49.60;;;;;;4886730;29;20029;-41
2021/11/30 12:09:26;;;;;;;1.05;0.75;;;18.40;49.70;;;;;;4886873;29;20045;-41
2021/11/30 12:12:14;;;;;;;0.70;0.60;;;18.30;49.50;;;;;;4886499;29;20051;-40
2021/11/30 12:14:44;;;;;;;0.60;0.50;;;18.30;49.50;;;;;;4872616;29;20045;-40
2021/11/30 12:17:24;;;;;;;1.23;0.88;;;18.20;49.60;;;;;;4886495;29;20093;-40
2021/11/30 12:19:59;;;;;;;1.25;0.93;;;18.10;49.80;;;;;;4886410;29;20053;-41
2021/11/30 12:22:48;;;;;;;0.93;0.80;;;18.20;49.70;;;;;;4896129;29;20100;-40
2021/11/30 12:25:40;;;;;;;0.93;0.77;;;18.30;49.70;;;;;;4905155;29;20040;-41
2021/11/30 12:28:09;;;;;;;1.20;0.65;;;18.40;49.60;;;;;;4867893;29;20052;-40
2021/11/30 12:30:53;;;;;;;1.15;0.80;;;18.30;49.60;;;;;;4867837;29;20044;-41
2021/11/30 12:33:36;;;;;;;2.67;0.70;;;18.20;49.60;;;;;;4867414;29;20050;-40
2021/11/30 12:36:06;;;;;;;0.98;0.60;;;18.10;49.70;;;;;;4867530;29;20064;-41
2021/11/30 12:38:40;;;;;;;1.42;0.90;;;18.20;49.70;;;;;;4867579;29;20034;-42
2021/11/30 12:41:43;;;;;;;1.23;0.80;;;18.30;49.70;;;;;;4909848;29;20051;-41
2021/11/30 12:44:14;;;;;;;1.33;0.60;;;18.40;49.70;;;;;;4924798;29;20126;-40
2021/11/30 12:46:42;;;;;;;0.93;0.70;;;18.30;49.50;;;;;;4926584;29;20059;-40
2021/11/30 12:49:29;;;;;;;1.08;0.73;;;18.30;49.60;;;;;;4932526;29;20031;-41
2021/11/30 12:52:10;;;;;;;1.48;0.82;;;18.10;49.60;;;;;;4945202;29;20059;-40
2021/11/30 12:54:39;;;;;;;1.48;0.95;;;18.20;49.70;;;;;;4925855;29;20111;-40
2021/11/30 12:57:06;;;;;;;0.93;0.80;;;18.30;49.70;;;;;;4941016;29;20096;-40
2021/11/30 12:59:39;;;;;;;1.13;0.73;;;18.40;49.70;;;;;;4945264;29;20035;-40
2021/11/30 13:02:28;;;;;;;0.93;0.70;;;18.40;49.70;;;;;;4945067;29;20055;-40
2021/11/30 13:05:13;;;;;;;1.30;0.73;;;18.30;49.60;;;;;;4944745;29;20023;-40